Аэропорт: Минеральные Воды. Минеральные Воды

ICAO: URMM

METAR:
2024-05-18 16:30:00
URMM 181630Z 17002MPS 9999 NSC 14/08 Q1018 R29/090070 NOSIG RMK QFE735/0981
TAF:
2024-05-18 14:00:00
TAF URMM 181400Z 1815/1915 33003G08MPS 9999 BKN030 TX18/1912Z TN08/1903Z 
  TEMPO 1821/1906 BKN016 
  BECMG 1906/1908 26003G08MPS